WLF88S FXMM-FBSK
Flight info
| Callsign | WLF88S |
|---|---|
| Flight time | 1h 53m |
| Altitude | 9000 |
| Route | MZV DCT WMV DCT MMV DCT GSV |
| Aircraft | AEST/L-SDFGRY/S |
Departure
| Time | 2026-04-30 11:25 |
|---|---|
| Airport | Moshoeshoe I International Airport (FXMM) |
Arrival
| Time | 2026-04-30 13:18 |
|---|---|
| Airport | Sir Seretse Khama International Airport (FBSK) |
| Time | Latitude | Longitude | Altitude | Speed | Heading |
|---|---|---|---|---|---|
| 2026-04-30 11:12 | -29.45834 | 27.55791 | 5443 ft | 0 kts | 16° |
| 2026-04-30 11:21 | -29.45826 | 27.55784 | 5446 ft | 7 kts | 270° |
| 2026-04-30 11:21 | -29.45853 | 27.55713 | 5446 ft | 17 kts | 285° |
| 2026-04-30 11:21 | -29.45795 | 27.55584 | 5447 ft | 19 kts | 7° |
| 2026-04-30 11:21 | -29.45643 | 27.55632 | 5446 ft | 27 kts | 14° |
| 2026-04-30 11:22 | -29.45520 | 27.55628 | 5446 ft | 15 kts | 286° |
| 2026-04-30 11:22 | -29.45505 | 27.55559 | 5446 ft | 0 kts | 284° |
| 2026-04-30 11:23 | -29.45505 | 27.55558 | 5449 ft | 2 kts | 284° |
| 2026-04-30 11:23 | -29.45615 | 27.55439 | 5450 ft | 54 kts | 196° |
| 2026-04-30 11:24 | -29.46175 | 27.55266 | 5458 ft | 103 kts | 195° |
| 2026-04-30 11:24 | -29.46900 | 27.55062 | 5644 ft | 106 kts | 189° |
| 2026-04-30 11:24 | -29.47644 | 27.54909 | 5885 ft | 120 kts | 200° |
| 2026-04-30 11:25 | -29.48279 | 27.53038 | 6064 ft | 169 kts | 265° |
| 2026-04-30 11:25 | -29.48035 | 27.51713 | 6329 ft | 170 kts | 307° |
| 2026-04-30 11:25 | -29.46242 | 27.49746 | 6637 ft | 188 kts | 321° |
| 2026-04-30 11:26 | -29.43683 | 27.49143 | 6874 ft | 195 kts | 355° |
| 2026-04-30 11:26 | -29.42353 | 27.48844 | 6981 ft | 197 kts | 342° |
| 2026-04-30 11:26 | -29.41121 | 27.48177 | 7101 ft | 197 kts | 328° |
| 2026-04-30 11:27 | -29.39981 | 27.47346 | 7287 ft | 198 kts | 328° |
| 2026-04-30 11:27 | -29.38778 | 27.46514 | 7649 ft | 199 kts | 329° |
| 2026-04-30 11:27 | -29.37607 | 27.45718 | 8030 ft | 199 kts | 330° |
| 2026-04-30 11:27 | -29.36422 | 27.44932 | 8405 ft | 194 kts | 330° |
| 2026-04-30 11:28 | -29.34132 | 27.43427 | 8861 ft | 187 kts | 329° |
| 2026-04-30 11:28 | -29.33030 | 27.42695 | 9032 ft | 178 kts | 328° |
| 2026-04-30 11:28 | -29.31952 | 27.42026 | 9188 ft | 175 kts | 329° |
| 2026-04-30 11:29 | -29.30877 | 27.41397 | 9356 ft | 174 kts | 330° |
| 2026-04-30 11:29 | -29.29778 | 27.40777 | 9373 ft | 181 kts | 330° |
| 2026-04-30 11:29 | -29.27389 | 27.39468 | 9134 ft | 196 kts | 331° |
| 2026-04-30 11:30 | -29.24871 | 27.38128 | 8945 ft | 203 kts | 332° |
| 2026-04-30 11:30 | -29.23595 | 27.37462 | 8975 ft | 200 kts | 332° |
| 2026-04-30 11:30 | -29.22338 | 27.36816 | 9004 ft | 198 kts | 333° |
| 2026-04-30 11:31 | -29.21504 | 27.36393 | 8998 ft | 198 kts | 333° |
| 2026-04-30 11:31 | -29.19813 | 27.35561 | 8992 ft | 197 kts | 333° |
| 2026-04-30 11:31 | -29.18984 | 27.35151 | 8987 ft | 194 kts | 333° |
| 2026-04-30 11:31 | -29.17764 | 27.34537 | 8990 ft | 189 kts | 333° |
| 2026-04-30 11:32 | -29.16194 | 27.33740 | 8985 ft | 183 kts | 333° |
| 2026-04-30 11:32 | -29.15044 | 27.33150 | 8990 ft | 180 kts | 332° |
| 2026-04-30 11:32 | -29.14278 | 27.32753 | 8983 ft | 178 kts | 332° |
| 2026-04-30 11:33 | -29.12055 | 27.31580 | 9029 ft | 176 kts | 332° |
| 2026-04-30 11:33 | -29.10943 | 27.30985 | 9004 ft | 176 kts | 331° |
| 2026-04-30 11:33 | -29.09837 | 27.30387 | 9000 ft | 175 kts | 331° |
| 2026-04-30 11:33 | -29.08737 | 27.29789 | 9000 ft | 175 kts | 330° |
| 2026-04-30 11:34 | -29.07657 | 27.29194 | 9015 ft | 174 kts | 330° |
| 2026-04-30 11:34 | -29.06572 | 27.28577 | 9013 ft | 174 kts | 329° |
| 2026-04-30 11:34 | -29.05489 | 27.27951 | 9004 ft | 174 kts | 329° |
| 2026-04-30 11:34 | -29.04413 | 27.27318 | 9000 ft | 173 kts | 329° |
| 2026-04-30 11:35 | -29.03347 | 27.26681 | 9005 ft | 172 kts | 328° |
| 2026-04-30 11:35 | -29.02296 | 27.26038 | 9012 ft | 172 kts | 328° |
| 2026-04-30 11:35 | -29.01251 | 27.25374 | 9000 ft | 171 kts | 327° |
| 2026-04-30 11:35 | -29.00217 | 27.24700 | 8998 ft | 170 kts | 327° |
| 2026-04-30 11:36 | -28.99197 | 27.24022 | 9020 ft | 170 kts | 327° |
| 2026-04-30 11:36 | -28.98172 | 27.23341 | 9013 ft | 171 kts | 327° |
| 2026-04-30 11:36 | -28.97144 | 27.22659 | 9000 ft | 171 kts | 327° |
| 2026-04-30 11:36 | -28.96116 | 27.21980 | 9004 ft | 171 kts | 327° |
| 2026-04-30 11:37 | -28.95083 | 27.21302 | 9015 ft | 171 kts | 327° |
| 2026-04-30 11:37 | -28.94043 | 27.20625 | 9009 ft | 173 kts | 327° |
| 2026-04-30 11:37 | -28.92990 | 27.19960 | 9008 ft | 173 kts | 327° |
| 2026-04-30 11:37 | -28.91933 | 27.19303 | 9002 ft | 173 kts | 328° |
| 2026-04-30 11:38 | -28.90876 | 27.18647 | 9017 ft | 173 kts | 326° |
| 2026-04-30 11:38 | -28.89993 | 27.17742 | 9017 ft | 171 kts | 305° |
| 2026-04-30 11:38 | -28.89362 | 27.16583 | 9000 ft | 173 kts | 301° |
| 2026-04-30 11:38 | -28.88750 | 27.15406 | 9003 ft | 172 kts | 302° |
| 2026-04-30 11:39 | -28.88125 | 27.14242 | 8998 ft | 171 kts | 302° |
| 2026-04-30 11:39 | -28.87488 | 27.13095 | 9002 ft | 170 kts | 303° |
| 2026-04-30 11:39 | -28.86841 | 27.11966 | 9004 ft | 170 kts | 304° |
| 2026-04-30 11:39 | -28.86174 | 27.10845 | 9007 ft | 170 kts | 304° |
| 2026-04-30 11:40 | -28.85493 | 27.09736 | 9006 ft | 170 kts | 305° |
| 2026-04-30 11:40 | -28.84771 | 27.08666 | 9006 ft | 171 kts | 314° |
| 2026-04-30 11:40 | -28.83827 | 27.07847 | 9005 ft | 172 kts | 324° |
| 2026-04-30 11:40 | -28.82806 | 27.07123 | 9012 ft | 173 kts | 324° |
| 2026-04-30 11:41 | -28.81798 | 27.06410 | 9006 ft | 173 kts | 324° |
| 2026-04-30 11:41 | -28.80775 | 27.05684 | 9006 ft | 173 kts | 324° |
| 2026-04-30 11:41 | -28.79755 | 27.04961 | 9007 ft | 173 kts | 324° |
| 2026-04-30 11:41 | -28.78731 | 27.04239 | 9006 ft | 173 kts | 325° |
| 2026-04-30 11:42 | -28.77699 | 27.03522 | 9003 ft | 174 kts | 325° |
| 2026-04-30 11:42 | -28.76652 | 27.02820 | 9017 ft | 175 kts | 326° |
| 2026-04-30 11:42 | -28.75589 | 27.02141 | 8994 ft | 176 kts | 327° |
| 2026-04-30 11:42 | -28.74511 | 27.01481 | 8997 ft | 176 kts | 328° |
| 2026-04-30 11:43 | -28.73424 | 27.00843 | 8996 ft | 176 kts | 329° |
| 2026-04-30 11:43 | -28.72313 | 27.00233 | 8993 ft | 177 kts | 331° |
| 2026-04-30 11:43 | -28.71188 | 26.99659 | 8994 ft | 177 kts | 332° |
| 2026-04-30 11:43 | -28.70053 | 26.99110 | 9004 ft | 177 kts | 333° |
| 2026-04-30 11:44 | -28.68906 | 26.98583 | 8996 ft | 177 kts | 334° |
| 2026-04-30 11:44 | -28.67758 | 26.98082 | 9002 ft | 177 kts | 334° |
| 2026-04-30 11:44 | -28.66593 | 26.97598 | 9001 ft | 178 kts | 335° |
| 2026-04-30 11:44 | -28.65427 | 26.97127 | 8995 ft | 177 kts | 335° |
| 2026-04-30 11:45 | -28.64280 | 26.96636 | 8996 ft | 176 kts | 336° |
| 2026-04-30 11:45 | -28.63133 | 26.96149 | 8995 ft | 176 kts | 336° |
| 2026-04-30 11:45 | -28.61985 | 26.95673 | 8991 ft | 176 kts | 336° |
| 2026-04-30 11:45 | -28.60830 | 26.95199 | 8993 ft | 176 kts | 336° |
| 2026-04-30 11:46 | -28.59699 | 26.94737 | 8994 ft | 175 kts | 336° |
| 2026-04-30 11:46 | -28.58551 | 26.94266 | 8996 ft | 175 kts | 336° |
| 2026-04-30 11:46 | -28.57404 | 26.93790 | 8994 ft | 175 kts | 336° |
| 2026-04-30 11:46 | -28.56262 | 26.93306 | 8990 ft | 175 kts | 336° |
| 2026-04-30 11:47 | -28.55124 | 26.92809 | 8992 ft | 176 kts | 335° |
| 2026-04-30 11:47 | -28.53989 | 26.92299 | 8999 ft | 175 kts | 334° |
| 2026-04-30 11:47 | -28.52854 | 26.91773 | 9005 ft | 177 kts | 334° |
| 2026-04-30 11:47 | -28.51716 | 26.91228 | 8982 ft | 178 kts | 333° |
| 2026-04-30 11:48 | -28.50582 | 26.90671 | 9002 ft | 178 kts | 333° |
| 2026-04-30 11:48 | -28.49444 | 26.90098 | 9012 ft | 181 kts | 333° |
| 2026-04-30 11:48 | -28.48288 | 26.89497 | 8982 ft | 185 kts | 333° |
| 2026-04-30 11:48 | -28.47118 | 26.88877 | 8985 ft | 186 kts | 332° |
| 2026-04-30 11:49 | -28.45946 | 26.88256 | 8997 ft | 186 kts | 332° |
| 2026-04-30 11:49 | -28.44772 | 26.87635 | 8987 ft | 186 kts | 333° |
| 2026-04-30 11:49 | -28.43600 | 26.87015 | 8984 ft | 185 kts | 333° |
| 2026-04-30 11:49 | -28.42418 | 26.86416 | 8997 ft | 187 kts | 333° |
| 2026-04-30 11:50 | -28.41216 | 26.85825 | 8984 ft | 189 kts | 333° |
| 2026-04-30 11:50 | -28.40009 | 26.85246 | 8994 ft | 188 kts | 334° |
| 2026-04-30 11:50 | -28.38803 | 26.84665 | 8992 ft | 189 kts | 334° |
| 2026-04-30 11:50 | -28.37592 | 26.84089 | 8987 ft | 189 kts | 334° |
| 2026-04-30 11:51 | -28.36378 | 26.83519 | 8976 ft | 188 kts | 334° |
| 2026-04-30 11:51 | -28.35181 | 26.82957 | 8954 ft | 184 kts | 334° |
| 2026-04-30 11:51 | -28.34009 | 26.82412 | 8962 ft | 180 kts | 334° |
| 2026-04-30 11:51 | -28.32861 | 26.81877 | 8979 ft | 177 kts | 334° |
| 2026-04-30 11:52 | -28.31723 | 26.81342 | 8980 ft | 176 kts | 334° |
| 2026-04-30 11:52 | -28.30595 | 26.80809 | 8980 ft | 175 kts | 333° |
| 2026-04-30 11:52 | -28.29474 | 26.80270 | 8982 ft | 175 kts | 333° |
| 2026-04-30 11:52 | -28.28356 | 26.79727 | 8979 ft | 175 kts | 333° |
| 2026-04-30 11:53 | -28.27235 | 26.79180 | 8982 ft | 175 kts | 333° |
| 2026-04-30 11:53 | -28.26113 | 26.78633 | 8981 ft | 175 kts | 333° |
| 2026-04-30 11:53 | -28.25012 | 26.78098 | 8981 ft | 175 kts | 333° |
| 2026-04-30 11:53 | -28.23893 | 26.77555 | 8981 ft | 175 kts | 333° |
| 2026-04-30 11:54 | -28.22776 | 26.77010 | 8983 ft | 175 kts | 333° |
| 2026-04-30 11:54 | -28.21660 | 26.76464 | 8981 ft | 174 kts | 333° |
| 2026-04-30 11:54 | -28.20557 | 26.75924 | 9028 ft | 171 kts | 333° |
| 2026-04-30 11:54 | -28.19474 | 26.75400 | 9095 ft | 168 kts | 333° |
| 2026-04-30 11:55 | -28.18402 | 26.74884 | 9158 ft | 166 kts | 333° |
| 2026-04-30 11:55 | -28.17349 | 26.74359 | 9219 ft | 164 kts | 333° |
| 2026-04-30 11:55 | -28.16302 | 26.73836 | 9242 ft | 165 kts | 334° |
| 2026-04-30 11:55 | -28.15242 | 26.73318 | 9225 ft | 168 kts | 334° |
| 2026-04-30 11:56 | -28.14161 | 26.72796 | 9222 ft | 169 kts | 334° |
| 2026-04-30 11:56 | -28.13073 | 26.72273 | 9220 ft | 171 kts | 334° |
| 2026-04-30 11:56 | -28.11974 | 26.71745 | 9218 ft | 172 kts | 334° |
| 2026-04-30 11:56 | -28.10871 | 26.71213 | 9216 ft | 172 kts | 334° |
| 2026-04-30 11:57 | -28.09765 | 26.70679 | 9219 ft | 172 kts | 334° |
| 2026-04-30 11:57 | -28.08659 | 26.70153 | 9218 ft | 173 kts | 334° |
| 2026-04-30 11:57 | -28.07547 | 26.69629 | 9202 ft | 173 kts | 334° |
| 2026-04-30 11:57 | -28.06438 | 26.69110 | 9202 ft | 173 kts | 334° |
| 2026-04-30 11:58 | -28.05329 | 26.68589 | 9205 ft | 172 kts | 334° |
| 2026-04-30 11:58 | -28.04223 | 26.68070 | 9205 ft | 173 kts | 334° |
| 2026-04-30 11:58 | -28.03113 | 26.67548 | 9200 ft | 173 kts | 334° |
| 2026-04-30 11:58 | -28.02002 | 26.67020 | 9204 ft | 172 kts | 334° |
| 2026-04-30 11:59 | -28.00898 | 26.66490 | 9207 ft | 173 kts | 334° |
| 2026-04-30 11:59 | -27.99792 | 26.65960 | 9205 ft | 173 kts | 334° |
| 2026-04-30 11:59 | -27.98694 | 26.65435 | 9197 ft | 174 kts | 334° |
| 2026-04-30 11:59 | -27.97581 | 26.64904 | 9195 ft | 174 kts | 334° |
| 2026-04-30 12:00 | -27.96467 | 26.64372 | 9193 ft | 174 kts | 334° |
| 2026-04-30 12:00 | -27.95357 | 26.63844 | 9199 ft | 173 kts | 334° |
| 2026-04-30 12:00 | -27.94251 | 26.63322 | 9198 ft | 172 kts | 334° |
| 2026-04-30 12:00 | -27.93145 | 26.62805 | 9190 ft | 172 kts | 334° |
| 2026-04-30 12:01 | -27.92040 | 26.62286 | 9206 ft | 172 kts | 334° |
| 2026-04-30 12:01 | -27.90936 | 26.61768 | 9207 ft | 173 kts | 334° |
| 2026-04-30 12:01 | -27.89820 | 26.61247 | 9202 ft | 174 kts | 334° |
| 2026-04-30 12:01 | -27.88701 | 26.60726 | 9189 ft | 174 kts | 334° |
| 2026-04-30 12:02 | -27.87589 | 26.60206 | 9182 ft | 173 kts | 334° |
| 2026-04-30 12:02 | -27.86481 | 26.59683 | 9187 ft | 172 kts | 335° |
| 2026-04-30 12:02 | -27.85373 | 26.59157 | 9188 ft | 172 kts | 335° |
| 2026-04-30 12:02 | -27.84269 | 26.58633 | 9188 ft | 172 kts | 335° |
| 2026-04-30 12:03 | -27.83162 | 26.58112 | 9185 ft | 172 kts | 335° |
| 2026-04-30 12:03 | -27.80945 | 26.57087 | 9191 ft | 173 kts | 335° |
| 2026-04-30 12:03 | -27.79841 | 26.56578 | 9190 ft | 174 kts | 335° |
| 2026-04-30 12:04 | -27.78719 | 26.56063 | 9185 ft | 174 kts | 335° |
| 2026-04-30 12:04 | -27.77592 | 26.55539 | 9179 ft | 176 kts | 335° |
| 2026-04-30 12:04 | -27.76461 | 26.55002 | 9177 ft | 176 kts | 335° |
| 2026-04-30 12:04 | -27.75333 | 26.54463 | 9178 ft | 176 kts | 335° |
| 2026-04-30 12:05 | -27.74202 | 26.53923 | 9163 ft | 176 kts | 335° |
| 2026-04-30 12:05 | -27.73073 | 26.53390 | 9166 ft | 176 kts | 335° |
| 2026-04-30 12:05 | -27.71948 | 26.52859 | 9178 ft | 175 kts | 335° |
| 2026-04-30 12:05 | -27.70823 | 26.52335 | 9182 ft | 175 kts | 335° |
| 2026-04-30 12:06 | -27.69699 | 26.51817 | 9163 ft | 175 kts | 335° |
| 2026-04-30 12:06 | -27.68568 | 26.51299 | 9162 ft | 175 kts | 335° |
| 2026-04-30 12:06 | -27.67440 | 26.50784 | 9167 ft | 175 kts | 335° |
| 2026-04-30 12:06 | -27.66308 | 26.50267 | 9177 ft | 176 kts | 335° |
| 2026-04-30 12:07 | -27.65198 | 26.49696 | 9187 ft | 175 kts | 323° |
| 2026-04-30 12:07 | -27.64361 | 26.48715 | 9174 ft | 175 kts | 308° |
| 2026-04-30 12:07 | -27.63677 | 26.47581 | 9167 ft | 175 kts | 305° |
| 2026-04-30 12:07 | -27.63025 | 26.46430 | 9166 ft | 174 kts | 305° |
| 2026-04-30 12:08 | -27.62369 | 26.45280 | 9174 ft | 174 kts | 305° |
| 2026-04-30 12:08 | -27.61703 | 26.44135 | 9170 ft | 175 kts | 306° |
| 2026-04-30 12:08 | -27.61025 | 26.42991 | 9173 ft | 175 kts | 306° |
| 2026-04-30 12:08 | -27.60336 | 26.41853 | 9164 ft | 176 kts | 306° |
| 2026-04-30 12:09 | -27.59648 | 26.40735 | 9163 ft | 176 kts | 307° |
| 2026-04-30 12:09 | -27.58943 | 26.39611 | 9164 ft | 176 kts | 307° |
| 2026-04-30 12:09 | -27.58229 | 26.38492 | 9157 ft | 175 kts | 307° |
| 2026-04-30 12:09 | -27.57510 | 26.37383 | 9162 ft | 175 kts | 308° |
| 2026-04-30 12:10 | -27.56744 | 26.36319 | 9158 ft | 175 kts | 317° |
| 2026-04-30 12:10 | -27.55770 | 26.35500 | 9169 ft | 175 kts | 325° |
| 2026-04-30 12:10 | -27.54759 | 26.34737 | 9173 ft | 175 kts | 324° |
| 2026-04-30 12:10 | -27.53762 | 26.33961 | 9165 ft | 174 kts | 323° |
| 2026-04-30 12:11 | -27.52778 | 26.33167 | 9162 ft | 174 kts | 323° |
| 2026-04-30 12:11 | -27.51808 | 26.32362 | 9155 ft | 173 kts | 322° |
| 2026-04-30 12:11 | -27.50847 | 26.31545 | 9160 ft | 173 kts | 322° |
| 2026-04-30 12:11 | -27.49890 | 26.30715 | 9160 ft | 174 kts | 322° |
| 2026-04-30 12:12 | -27.48931 | 26.29876 | 9157 ft | 175 kts | 322° |
| 2026-04-30 12:12 | -27.47970 | 26.29035 | 9162 ft | 175 kts | 322° |
| 2026-04-30 12:12 | -27.47000 | 26.28198 | 9160 ft | 176 kts | 322° |
| 2026-04-30 12:12 | -27.46008 | 26.27380 | 9165 ft | 177 kts | 323° |
| 2026-04-30 12:13 | -27.45000 | 26.26581 | 9142 ft | 177 kts | 324° |
| 2026-04-30 12:13 | -27.43977 | 26.25807 | 9157 ft | 176 kts | 325° |
| 2026-04-30 12:13 | -27.42956 | 26.25062 | 9152 ft | 175 kts | 326° |
| 2026-04-30 12:13 | -27.41920 | 26.24344 | 9146 ft | 175 kts | 327° |
| 2026-04-30 12:14 | -27.40867 | 26.23661 | 9151 ft | 175 kts | 329° |
| 2026-04-30 12:14 | -27.39790 | 26.23013 | 9156 ft | 176 kts | 330° |
| 2026-04-30 12:14 | -27.38689 | 26.22393 | 9146 ft | 177 kts | 332° |
| 2026-04-30 12:14 | -27.37574 | 26.21805 | 9150 ft | 177 kts | 333° |
| 2026-04-30 12:15 | -27.36444 | 26.21252 | 9147 ft | 177 kts | 335° |
| 2026-04-30 12:15 | -27.35313 | 26.20744 | 9154 ft | 177 kts | 336° |
| 2026-04-30 12:15 | -27.34161 | 26.20263 | 9149 ft | 176 kts | 337° |
| 2026-04-30 12:15 | -27.33007 | 26.19814 | 9154 ft | 175 kts | 339° |
| 2026-04-30 12:16 | -27.31848 | 26.19398 | 9160 ft | 175 kts | 340° |
| 2026-04-30 12:16 | -27.30680 | 26.19018 | 9153 ft | 175 kts | 340° |
| 2026-04-30 12:16 | -27.29503 | 26.18659 | 9150 ft | 175 kts | 341° |
| 2026-04-30 12:16 | -27.28325 | 26.18313 | 9155 ft | 175 kts | 342° |
| 2026-04-30 12:17 | -27.25926 | 26.17652 | 9151 ft | 178 kts | 342° |
| 2026-04-30 12:17 | -27.24722 | 26.17322 | 9160 ft | 178 kts | 342° |
| 2026-04-30 12:17 | -27.23519 | 26.16996 | 9166 ft | 178 kts | 343° |
| 2026-04-30 12:18 | -27.22305 | 26.16683 | 9159 ft | 179 kts | 342° |
| 2026-04-30 12:18 | -27.21095 | 26.16369 | 9157 ft | 178 kts | 342° |
| 2026-04-30 12:18 | -27.19894 | 26.16043 | 9155 ft | 178 kts | 342° |
| 2026-04-30 12:18 | -27.18696 | 26.15704 | 9160 ft | 178 kts | 341° |
| 2026-04-30 12:19 | -27.17492 | 26.15341 | 9152 ft | 179 kts | 340° |
| 2026-04-30 12:19 | -27.16296 | 26.14956 | 9146 ft | 178 kts | 339° |
| 2026-04-30 12:19 | -27.15123 | 26.14553 | 9151 ft | 175 kts | 339° |
| 2026-04-30 12:19 | -27.14359 | 26.14279 | 9159 ft | 174 kts | 338° |
| 2026-04-30 12:20 | -27.13214 | 26.13852 | 9160 ft | 174 kts | 337° |
| 2026-04-30 12:20 | -27.12072 | 26.13401 | 9158 ft | 174 kts | 336° |
| 2026-04-30 12:20 | -27.10942 | 26.12924 | 9164 ft | 173 kts | 335° |
| 2026-04-30 12:20 | -27.09831 | 26.12423 | 9164 ft | 172 kts | 334° |
| 2026-04-30 12:21 | -27.08736 | 26.11898 | 9160 ft | 172 kts | 333° |
| 2026-04-30 12:21 | -27.07639 | 26.11351 | 9155 ft | 173 kts | 332° |
| 2026-04-30 12:21 | -27.06544 | 26.10778 | 9160 ft | 174 kts | 331° |
| 2026-04-30 12:21 | -27.05458 | 26.10178 | 9156 ft | 174 kts | 330° |
| 2026-04-30 12:22 | -27.04382 | 26.09566 | 9161 ft | 173 kts | 330° |
| 2026-04-30 12:22 | -27.03316 | 26.08946 | 9161 ft | 173 kts | 330° |
| 2026-04-30 12:22 | -27.02252 | 26.08320 | 9166 ft | 172 kts | 329° |
| 2026-04-30 12:22 | -27.01195 | 26.07693 | 9169 ft | 172 kts | 329° |
| 2026-04-30 12:23 | -27.00138 | 26.07061 | 9174 ft | 172 kts | 329° |
| 2026-04-30 12:23 | -26.99079 | 26.06431 | 9170 ft | 172 kts | 329° |
| 2026-04-30 12:23 | -26.98017 | 26.05805 | 9164 ft | 172 kts | 329° |
| 2026-04-30 12:23 | -26.96959 | 26.05178 | 9154 ft | 172 kts | 330° |
| 2026-04-30 12:24 | -26.95900 | 26.04549 | 9175 ft | 173 kts | 330° |
| 2026-04-30 12:24 | -26.94829 | 26.03929 | 9172 ft | 174 kts | 331° |
| 2026-04-30 12:24 | -26.93750 | 26.03322 | 9167 ft | 174 kts | 332° |
| 2026-04-30 12:24 | -26.92664 | 26.02733 | 9173 ft | 173 kts | 332° |
| 2026-04-30 12:25 | -26.91571 | 26.02164 | 9180 ft | 173 kts | 333° |
| 2026-04-30 12:25 | -26.90468 | 26.01613 | 9175 ft | 174 kts | 334° |
| 2026-04-30 12:25 | -26.89363 | 26.01076 | 9171 ft | 173 kts | 334° |
| 2026-04-30 12:25 | -26.88254 | 26.00556 | 9168 ft | 172 kts | 335° |
| 2026-04-30 12:26 | -26.87153 | 26.00063 | 9170 ft | 173 kts | 336° |
| 2026-04-30 12:26 | -26.86030 | 25.99577 | 9169 ft | 173 kts | 336° |
| 2026-04-30 12:26 | -26.84903 | 25.99103 | 9173 ft | 173 kts | 337° |
| 2026-04-30 12:26 | -26.83775 | 25.98642 | 9168 ft | 173 kts | 338° |
| 2026-04-30 12:27 | -26.82630 | 25.98198 | 9179 ft | 175 kts | 338° |
| 2026-04-30 12:27 | -26.81476 | 25.97768 | 9175 ft | 175 kts | 338° |
| 2026-04-30 12:27 | -26.80327 | 25.97346 | 9173 ft | 173 kts | 338° |
| 2026-04-30 12:27 | -26.79185 | 25.96932 | 9178 ft | 172 kts | 339° |
| 2026-04-30 12:28 | -26.78043 | 25.96519 | 9184 ft | 173 kts | 338° |
| 2026-04-30 12:28 | -26.76899 | 25.96103 | 9180 ft | 173 kts | 338° |
| 2026-04-30 12:28 | -26.75756 | 25.95673 | 9175 ft | 173 kts | 338° |
| 2026-04-30 12:28 | -26.74623 | 25.95227 | 9172 ft | 173 kts | 338° |
| 2026-04-30 12:29 | -26.73489 | 25.94779 | 9186 ft | 173 kts | 337° |
| 2026-04-30 12:29 | -26.72353 | 25.94333 | 9173 ft | 174 kts | 337° |
| 2026-04-30 12:29 | -26.71214 | 25.93851 | 9175 ft | 175 kts | 336° |
| 2026-04-30 12:29 | -26.70078 | 25.93352 | 9183 ft | 175 kts | 336° |
| 2026-04-30 12:30 | -26.68945 | 25.92846 | 9186 ft | 175 kts | 335° |
| 2026-04-30 12:30 | -26.67815 | 25.92332 | 9184 ft | 174 kts | 335° |
| 2026-04-30 12:30 | -26.66700 | 25.91810 | 9180 ft | 173 kts | 335° |
| 2026-04-30 12:30 | -26.65594 | 25.91281 | 9185 ft | 173 kts | 334° |
| 2026-04-30 12:31 | -26.64495 | 25.90746 | 9183 ft | 173 kts | 334° |
| 2026-04-30 12:31 | -26.63407 | 25.90210 | 9182 ft | 173 kts | 334° |
| 2026-04-30 12:31 | -26.62296 | 25.89660 | 9192 ft | 173 kts | 334° |
| 2026-04-30 12:31 | -26.61199 | 25.89116 | 9191 ft | 173 kts | 334° |
| 2026-04-30 12:32 | -26.60113 | 25.88581 | 9180 ft | 173 kts | 334° |
| 2026-04-30 12:32 | -26.59006 | 25.88033 | 9185 ft | 174 kts | 334° |
| 2026-04-30 12:32 | -26.57895 | 25.87483 | 9185 ft | 175 kts | 334° |
| 2026-04-30 12:32 | -26.56782 | 25.86935 | 9184 ft | 175 kts | 334° |
| 2026-04-30 12:33 | -26.55667 | 25.86392 | 9186 ft | 175 kts | 334° |
| 2026-04-30 12:33 | -26.54549 | 25.85857 | 9183 ft | 175 kts | 334° |
| 2026-04-30 12:33 | -26.53431 | 25.85327 | 9183 ft | 175 kts | 335° |
| 2026-04-30 12:33 | -26.52308 | 25.84805 | 9189 ft | 174 kts | 335° |
| 2026-04-30 12:34 | -26.51188 | 25.84296 | 9191 ft | 174 kts | 335° |
| 2026-04-30 12:34 | -26.50059 | 25.83793 | 9184 ft | 174 kts | 335° |
| 2026-04-30 12:34 | -26.48930 | 25.83294 | 9184 ft | 174 kts | 335° |
| 2026-04-30 12:34 | -26.47802 | 25.82796 | 9190 ft | 174 kts | 336° |
| 2026-04-30 12:35 | -26.46672 | 25.82299 | 9181 ft | 174 kts | 336° |
| 2026-04-30 12:35 | -26.45542 | 25.81805 | 9183 ft | 174 kts | 336° |
| 2026-04-30 12:35 | -26.44413 | 25.81312 | 9175 ft | 175 kts | 336° |
| 2026-04-30 12:35 | -26.43285 | 25.80822 | 9179 ft | 173 kts | 336° |
| 2026-04-30 12:36 | -26.42165 | 25.80331 | 9194 ft | 172 kts | 336° |
| 2026-04-30 12:36 | -26.41046 | 25.79839 | 9186 ft | 174 kts | 336° |
| 2026-04-30 12:36 | -26.39922 | 25.79344 | 9185 ft | 173 kts | 336° |
| 2026-04-30 12:36 | -26.38805 | 25.78850 | 9192 ft | 172 kts | 336° |
| 2026-04-30 12:37 | -26.37693 | 25.78356 | 9196 ft | 172 kts | 335° |
| 2026-04-30 12:37 | -26.36575 | 25.77855 | 9192 ft | 174 kts | 335° |
| 2026-04-30 12:37 | -26.35446 | 25.77342 | 9190 ft | 175 kts | 335° |
| 2026-04-30 12:37 | -26.34329 | 25.76834 | 9190 ft | 176 kts | 335° |
| 2026-04-30 12:38 | -26.33195 | 25.76317 | 9184 ft | 176 kts | 335° |
| 2026-04-30 12:38 | -26.32048 | 25.75793 | 9184 ft | 176 kts | 335° |
| 2026-04-30 12:38 | -26.30914 | 25.75275 | 9174 ft | 176 kts | 335° |
| 2026-04-30 12:38 | -26.29784 | 25.74760 | 9186 ft | 175 kts | 335° |
| 2026-04-30 12:39 | -26.28672 | 25.74255 | 9186 ft | 174 kts | 335° |
| 2026-04-30 12:39 | -26.27551 | 25.73748 | 9185 ft | 174 kts | 335° |
| 2026-04-30 12:39 | -26.26432 | 25.73240 | 9171 ft | 174 kts | 335° |
| 2026-04-30 12:39 | -26.25320 | 25.72735 | 9172 ft | 174 kts | 335° |
| 2026-04-30 12:40 | -26.24200 | 25.72227 | 9184 ft | 174 kts | 335° |
| 2026-04-30 12:40 | -26.23080 | 25.71719 | 9185 ft | 174 kts | 335° |
| 2026-04-30 12:40 | -26.21960 | 25.71210 | 9162 ft | 175 kts | 335° |
| 2026-04-30 12:40 | -26.20829 | 25.70702 | 9183 ft | 175 kts | 335° |
| 2026-04-30 12:41 | -26.19698 | 25.70197 | 9186 ft | 175 kts | 335° |
| 2026-04-30 12:41 | -26.18568 | 25.69690 | 9185 ft | 175 kts | 335° |
| 2026-04-30 12:41 | -26.17439 | 25.69183 | 9184 ft | 175 kts | 335° |
| 2026-04-30 12:41 | -26.16308 | 25.68674 | 9184 ft | 175 kts | 335° |
| 2026-04-30 12:42 | -26.15182 | 25.68166 | 9189 ft | 175 kts | 335° |
| 2026-04-30 12:42 | -26.14046 | 25.67653 | 9187 ft | 177 kts | 335° |
| 2026-04-30 12:42 | -26.12907 | 25.67138 | 9185 ft | 177 kts | 335° |
| 2026-04-30 12:42 | -26.11771 | 25.66626 | 9189 ft | 176 kts | 335° |
| 2026-04-30 12:43 | -26.10636 | 25.66117 | 9185 ft | 176 kts | 335° |
| 2026-04-30 12:43 | -26.09507 | 25.65598 | 9156 ft | 176 kts | 335° |
| 2026-04-30 12:43 | -26.08377 | 25.65074 | 9174 ft | 174 kts | 335° |
| 2026-04-30 12:43 | -26.07261 | 25.64560 | 9188 ft | 173 kts | 335° |
| 2026-04-30 12:44 | -26.06143 | 25.64054 | 9186 ft | 174 kts | 336° |
| 2026-04-30 12:44 | -26.05013 | 25.63557 | 9182 ft | 175 kts | 336° |
| 2026-04-30 12:44 | -26.03874 | 25.63060 | 9176 ft | 177 kts | 336° |
| 2026-04-30 12:44 | -26.02729 | 25.62553 | 9176 ft | 178 kts | 335° |
| 2026-04-30 12:45 | -26.01595 | 25.62046 | 9178 ft | 178 kts | 335° |
| 2026-04-30 12:45 | -26.00436 | 25.61528 | 9175 ft | 177 kts | 335° |
| 2026-04-30 12:45 | -25.99303 | 25.61029 | 9172 ft | 177 kts | 336° |
| 2026-04-30 12:45 | -25.98158 | 25.60525 | 9168 ft | 176 kts | 336° |
| 2026-04-30 12:46 | -25.97020 | 25.60026 | 9173 ft | 176 kts | 336° |
| 2026-04-30 12:46 | -25.95879 | 25.59540 | 9170 ft | 175 kts | 338° |
| 2026-04-30 12:46 | -25.94709 | 25.59143 | 9174 ft | 176 kts | 341° |
| 2026-04-30 12:46 | -25.93526 | 25.58777 | 9174 ft | 177 kts | 341° |
| 2026-04-30 12:47 | -25.92336 | 25.58426 | 9178 ft | 177 kts | 342° |
| 2026-04-30 12:47 | -25.91142 | 25.58088 | 9176 ft | 177 kts | 342° |
| 2026-04-30 12:47 | -25.89945 | 25.57761 | 9172 ft | 177 kts | 343° |
| 2026-04-30 12:47 | -25.88747 | 25.57445 | 9174 ft | 176 kts | 343° |
| 2026-04-30 12:48 | -25.87549 | 25.57143 | 9173 ft | 176 kts | 343° |
| 2026-04-30 12:48 | -25.86352 | 25.56848 | 9173 ft | 176 kts | 344° |
| 2026-04-30 12:48 | -25.85150 | 25.56568 | 9175 ft | 176 kts | 345° |
| 2026-04-30 12:48 | -25.83943 | 25.56304 | 9174 ft | 177 kts | 345° |
| 2026-04-30 12:49 | -25.82730 | 25.56043 | 9176 ft | 178 kts | 346° |
| 2026-04-30 12:49 | -25.81515 | 25.55795 | 9175 ft | 178 kts | 346° |
| 2026-04-30 12:49 | -25.80296 | 25.55563 | 9175 ft | 178 kts | 346° |
| 2026-04-30 12:49 | -25.79075 | 25.55343 | 9174 ft | 177 kts | 347° |
| 2026-04-30 12:50 | -25.77855 | 25.55140 | 9175 ft | 177 kts | 347° |
| 2026-04-30 12:50 | -25.76631 | 25.54954 | 9172 ft | 178 kts | 348° |
| 2026-04-30 12:50 | -25.75399 | 25.54774 | 9163 ft | 178 kts | 348° |
| 2026-04-30 12:50 | -25.74167 | 25.54603 | 9175 ft | 179 kts | 349° |
| 2026-04-30 12:51 | -25.72930 | 25.54444 | 9170 ft | 179 kts | 349° |
| 2026-04-30 12:51 | -25.71691 | 25.54299 | 9172 ft | 180 kts | 350° |
| 2026-04-30 12:51 | -25.70443 | 25.54167 | 9176 ft | 181 kts | 350° |
| 2026-04-30 12:51 | -25.69190 | 25.54049 | 9167 ft | 180 kts | 351° |
| 2026-04-30 12:52 | -25.67958 | 25.53934 | 9169 ft | 180 kts | 351° |
| 2026-04-30 12:52 | -25.66690 | 25.54001 | 9156 ft | 183 kts | 6° |
| 2026-04-30 12:52 | -25.65468 | 25.54341 | 9191 ft | 184 kts | 8° |
| 2026-04-30 12:52 | -25.64222 | 25.54696 | 9185 ft | 185 kts | 7° |
| 2026-04-30 12:53 | -25.62964 | 25.55019 | 9176 ft | 185 kts | 6° |
| 2026-04-30 12:53 | -25.61704 | 25.55311 | 9175 ft | 186 kts | 5° |
| 2026-04-30 12:53 | -25.60432 | 25.55585 | 9177 ft | 186 kts | 5° |
| 2026-04-30 12:53 | -25.59161 | 25.55848 | 9177 ft | 186 kts | 4° |
| 2026-04-30 12:54 | -25.57883 | 25.56100 | 9174 ft | 187 kts | 4° |
| 2026-04-30 12:54 | -25.56600 | 25.56345 | 9178 ft | 187 kts | 4° |
| 2026-04-30 12:54 | -25.55322 | 25.56586 | 9180 ft | 187 kts | 4° |
| 2026-04-30 12:54 | -25.54045 | 25.56832 | 9179 ft | 186 kts | 4° |
| 2026-04-30 12:55 | -25.52771 | 25.57082 | 9176 ft | 186 kts | 4° |
| 2026-04-30 12:55 | -25.51499 | 25.57345 | 9176 ft | 186 kts | 5° |
| 2026-04-30 12:55 | -25.50227 | 25.57627 | 9179 ft | 186 kts | 6° |
| 2026-04-30 12:55 | -25.48959 | 25.57934 | 9187 ft | 187 kts | 5° |
| 2026-04-30 12:56 | -25.47669 | 25.58041 | 9177 ft | 185 kts | 355° |
| 2026-04-30 12:56 | -25.46401 | 25.58021 | 9172 ft | 184 kts | 353° |
| 2026-04-30 12:56 | -25.45127 | 25.57972 | 9176 ft | 183 kts | 353° |
| 2026-04-30 12:56 | -25.43855 | 25.57917 | 9179 ft | 182 kts | 353° |
| 2026-04-30 12:57 | -25.42595 | 25.57865 | 9184 ft | 180 kts | 353° |
| 2026-04-30 12:57 | -25.41340 | 25.57832 | 9181 ft | 181 kts | 354° |
| 2026-04-30 12:57 | -25.40079 | 25.57817 | 9177 ft | 181 kts | 355° |
| 2026-04-30 12:57 | -25.38823 | 25.57837 | 9183 ft | 181 kts | 358° |
| 2026-04-30 12:58 | -25.37558 | 25.57927 | 9183 ft | 182 kts | 0° |
| 2026-04-30 12:58 | -25.36297 | 25.58086 | 9182 ft | 183 kts | 2° |
| 2026-04-30 12:58 | -25.35043 | 25.58318 | 9177 ft | 183 kts | 5° |
| 2026-04-30 12:58 | -25.33798 | 25.58629 | 9180 ft | 184 kts | 8° |
| 2026-04-30 12:59 | -25.32554 | 25.59025 | 9180 ft | 187 kts | 11° |
| 2026-04-30 12:59 | -25.31321 | 25.59493 | 9178 ft | 188 kts | 14° |
| 2026-04-30 12:59 | -25.30103 | 25.60021 | 9179 ft | 189 kts | 16° |
| 2026-04-30 12:59 | -25.28902 | 25.60615 | 9181 ft | 190 kts | 18° |
| 2026-04-30 13:00 | -25.27714 | 25.61272 | 9179 ft | 191 kts | 20° |
| 2026-04-30 13:00 | -25.26546 | 25.61982 | 9182 ft | 192 kts | 22° |
| 2026-04-30 13:00 | -25.25391 | 25.62729 | 9183 ft | 192 kts | 24° |
| 2026-04-30 13:00 | -25.24250 | 25.63505 | 9180 ft | 193 kts | 25° |
| 2026-04-30 13:01 | -25.23112 | 25.64297 | 9185 ft | 194 kts | 25° |
| 2026-04-30 13:01 | -25.21960 | 25.65097 | 9193 ft | 196 kts | 24° |
| 2026-04-30 13:01 | -25.20795 | 25.65878 | 9190 ft | 196 kts | 24° |
| 2026-04-30 13:01 | -25.19611 | 25.66621 | 9190 ft | 196 kts | 22° |
| 2026-04-30 13:02 | -25.18406 | 25.67322 | 9188 ft | 196 kts | 20° |
| 2026-04-30 13:02 | -25.17181 | 25.67986 | 9182 ft | 195 kts | 19° |
| 2026-04-30 13:02 | -25.15962 | 25.68583 | 9186 ft | 193 kts | 17° |
| 2026-04-30 13:02 | -25.14708 | 25.69153 | 9169 ft | 194 kts | 15° |
| 2026-04-30 13:03 | -25.13452 | 25.69672 | 9056 ft | 197 kts | 14° |
| 2026-04-30 13:03 | -25.12145 | 25.70145 | 8901 ft | 198 kts | 12° |
| 2026-04-30 13:03 | -25.10812 | 25.70588 | 8771 ft | 202 kts | 12° |
| 2026-04-30 13:03 | -25.09455 | 25.71025 | 8628 ft | 204 kts | 11° |
| 2026-04-30 13:04 | -25.08087 | 25.71435 | 8495 ft | 204 kts | 11° |
| 2026-04-30 13:04 | -25.06715 | 25.71823 | 8365 ft | 204 kts | 11° |
| 2026-04-30 13:04 | -25.05331 | 25.72214 | 8197 ft | 206 kts | 11° |
| 2026-04-30 13:04 | -25.03943 | 25.72612 | 8034 ft | 206 kts | 11° |
| 2026-04-30 13:05 | -25.02554 | 25.73009 | 7890 ft | 206 kts | 12° |
| 2026-04-30 13:05 | -25.01173 | 25.73441 | 7736 ft | 207 kts | 13° |
| 2026-04-30 13:05 | -24.99802 | 25.73915 | 7612 ft | 207 kts | 15° |
| 2026-04-30 13:06 | -24.97088 | 25.74930 | 7322 ft | 205 kts | 17° |
| 2026-04-30 13:06 | -24.95748 | 25.75483 | 7169 ft | 205 kts | 18° |
| 2026-04-30 13:06 | -24.94418 | 25.76051 | 7031 ft | 205 kts | 19° |
| 2026-04-30 13:06 | -24.93089 | 25.76641 | 6910 ft | 206 kts | 20° |
| 2026-04-30 13:07 | -24.91767 | 25.77244 | 6776 ft | 206 kts | 20° |
| 2026-04-30 13:07 | -24.90890 | 25.77642 | 6684 ft | 206 kts | 20° |
| 2026-04-30 13:07 | -24.89572 | 25.78241 | 6550 ft | 204 kts | 20° |
| 2026-04-30 13:07 | -24.87842 | 25.79032 | 6354 ft | 204 kts | 20° |
| 2026-04-30 13:08 | -24.86950 | 25.79424 | 6252 ft | 204 kts | 20° |
| 2026-04-30 13:08 | -24.85636 | 25.79999 | 6103 ft | 203 kts | 19° |
| 2026-04-30 13:08 | -24.83880 | 25.80751 | 5935 ft | 208 kts | 19° |
| 2026-04-30 13:08 | -24.82949 | 25.81134 | 5830 ft | 214 kts | 18° |
| 2026-04-30 13:09 | -24.81540 | 25.81697 | 5710 ft | 216 kts | 17° |
| 2026-04-30 13:09 | -24.80118 | 25.82248 | 5592 ft | 217 kts | 17° |
| 2026-04-30 13:09 | -24.78686 | 25.82800 | 5468 ft | 219 kts | 17° |
| 2026-04-30 13:09 | -24.77238 | 25.83343 | 5337 ft | 219 kts | 18° |
| 2026-04-30 13:10 | -24.75805 | 25.83894 | 5223 ft | 218 kts | 18° |
| 2026-04-30 13:10 | -24.74377 | 25.84436 | 5120 ft | 215 kts | 18° |
| 2026-04-30 13:10 | -24.72952 | 25.85007 | 4998 ft | 218 kts | 18° |
| 2026-04-30 13:10 | -24.71561 | 25.85560 | 4876 ft | 212 kts | 19° |
| 2026-04-30 13:11 | -24.70143 | 25.86075 | 4735 ft | 217 kts | 8° |
| 2026-04-30 13:11 | -24.68668 | 25.85946 | 4551 ft | 213 kts | 343° |
| 2026-04-30 13:11 | -24.67292 | 25.85305 | 4464 ft | 215 kts | 336° |
| 2026-04-30 13:11 | -24.66159 | 25.84249 | 4398 ft | 214 kts | 312° |
| 2026-04-30 13:12 | -24.65595 | 25.82725 | 4271 ft | 221 kts | 286° |
| 2026-04-30 13:12 | -24.65707 | 25.80967 | 4047 ft | 234 kts | 258° |
| 2026-04-30 13:12 | -24.65928 | 25.79286 | 4300 ft | 215 kts | 281° |
| 2026-04-30 13:13 | -24.64220 | 25.77072 | 4337 ft | 195 kts | 353° |
| 2026-04-30 13:13 | -24.63042 | 25.77469 | 4168 ft | 170 kts | 48° |
| 2026-04-30 13:13 | -24.62146 | 25.79409 | 4235 ft | 126 kts | 53° |
| 2026-04-30 13:14 | -24.61638 | 25.80210 | 4236 ft | 128 kts | 52° |
| 2026-04-30 13:14 | -24.61148 | 25.81031 | 4232 ft | 131 kts | 56° |
| 2026-04-30 13:14 | -24.60281 | 25.82651 | 4044 ft | 117 kts | 50° |
| 2026-04-30 13:15 | -24.59752 | 25.83372 | 3978 ft | 123 kts | 54° |
| 2026-04-30 13:15 | -24.58967 | 25.84980 | 4077 ft | 114 kts | 58° |
| 2026-04-30 13:15 | -24.58576 | 25.85691 | 4036 ft | 106 kts | 58° |
| 2026-04-30 13:16 | -24.58221 | 25.86395 | 3975 ft | 107 kts | 61° |
| 2026-04-30 13:16 | -24.57842 | 25.87111 | 3879 ft | 109 kts | 62° |
| 2026-04-30 13:16 | -24.57499 | 25.87833 | 3771 ft | 107 kts | 61° |
| 2026-04-30 13:17 | -24.56822 | 25.89223 | 3598 ft | 105 kts | 60° |
| 2026-04-30 13:17 | -24.56466 | 25.89926 | 3482 ft | 106 kts | 63° |
| 2026-04-30 13:17 | -24.55805 | 25.91268 | 3318 ft | 71 kts | 63° |
| 2026-04-30 13:18 | -24.55633 | 25.91624 | 3317 ft | 39 kts | 61° |
| 2026-04-30 13:18 | -24.55417 | 25.92107 | 3321 ft | 16 kts | 122° |
| 2026-04-30 13:18 | -24.55502 | 25.92170 | 3319 ft | 8 kts | 153° |
| 2026-04-30 13:19 | -24.55504 | 25.92171 | 3319 ft | 0 kts | 153° |
| 2026-04-30 13:19 | -24.55524 | 25.92182 | 3318 ft | 14 kts | 152° |
| 2026-04-30 13:19 | -24.55598 | 25.92287 | 3318 ft | 24 kts | 63° |
| 2026-04-30 13:20 | -24.55493 | 25.92500 | 3318 ft | 35 kts | 61° |
| 2026-04-30 13:20 | -24.55387 | 25.92716 | 3318 ft | 27 kts | 62° |
| 2026-04-30 13:20 | -24.55315 | 25.92861 | 3317 ft | 18 kts | 60° |
| 2026-04-30 13:20 | -24.55266 | 25.92955 | 3317 ft | 11 kts | 60° |
| 2026-04-30 13:21 | -24.55296 | 25.93031 | 3317 ft | 16 kts | 151° |
| 2026-04-30 13:21 | -24.55350 | 25.93102 | 3318 ft | 12 kts | 60° |
| 2026-04-30 13:21 | -24.55319 | 25.93129 | 3318 ft | 0 kts | 331° |